createdAt,value
2019-03-13T00:00:14.165Z,78.60
2019-03-13T00:02:40.546Z,78.00
2019-03-13T00:05:07.514Z,77.80
2019-03-13T00:07:33.679Z,78.40
2019-03-13T00:09:59.781Z,77.60
2019-03-13T00:12:25.942Z,77.60
2019-03-13T00:14:52.257Z,77.60
2019-03-13T00:17:18.327Z,77.60
2019-03-13T00:19:44.623Z,77.80
2019-03-13T00:22:10.804Z,77.60
2019-03-13T00:24:36.969Z,77.50
2019-03-13T00:27:03.056Z,77.70
2019-03-13T00:29:29.174Z,78.50
2019-03-13T00:31:55.361Z,78.00
2019-03-13T00:34:21.624Z,77.90
2019-03-13T00:36:48.004Z,77.60
2019-03-13T00:39:14.084Z,77.40
2019-03-13T00:41:40.289Z,77.20
2019-03-13T00:44:06.368Z,77.00
2019-03-13T00:46:32.450Z,77.30
2019-03-13T00:48:58.552Z,77.80
2019-03-13T00:51:24.635Z,77.90
2019-03-13T00:53:50.741Z,77.50
2019-03-13T00:56:16.835Z,77.60
2019-03-13T00:58:42.900Z,77.70
2019-03-13T01:01:10.885Z,76.90
2019-03-13T01:03:38.897Z,77.10
2019-03-13T01:06:09.965Z,77.50
2019-03-13T01:08:36.073Z,76.90
2019-03-13T01:11:02.290Z,76.70
2019-03-13T01:13:28.456Z,76.60
2019-03-13T01:15:54.635Z,77.10
2019-03-13T01:18:20.687Z,77.00
2019-03-13T01:20:46.784Z,77.20
2019-03-13T01:23:12.831Z,76.80
2019-03-13T01:25:38.951Z,76.80
2019-03-13T01:28:05.105Z,77.30
2019-03-13T01:30:33.390Z,76.60
2019-03-13T01:33:01.381Z,76.60
2019-03-13T01:35:29.406Z,76.50
2019-03-13T01:37:55.514Z,77.20
2019-03-13T01:40:21.684Z,77.10
2019-03-13T01:42:47.866Z,78.10
2019-03-13T01:45:14.126Z,76.80
2019-03-13T01:47:40.206Z,77.10
2019-03-13T01:50:08.883Z,77.40
2019-03-13T01:52:35.075Z,77.60
2019-03-13T01:55:01.260Z,77.70
2019-03-13T01:57:27.724Z,77.50
2019-03-13T01:59:53.805Z,76.70
2019-03-13T02:02:19.900Z,77.30
2019-03-13T02:04:45.981Z,77.00
2019-03-13T02:07:12.051Z,77.00
2019-03-13T02:09:38.147Z,74.80
2019-03-13T02:12:04.237Z,75.20
2019-03-13T02:14:30.316Z,75.70
2019-03-13T02:16:56.379Z,76.40
2019-03-13T02:19:22.476Z,77.50
2019-03-13T02:21:48.551Z,77.50
2019-03-13T02:24:14.644Z,77.70
2019-03-13T02:26:40.713Z,77.80
2019-03-13T02:29:06.825Z,78.20
2019-03-13T02:31:32.903Z,78.30
2019-03-13T02:33:59.067Z,79.40
2019-03-13T02:36:25.152Z,79.50
2019-03-13T02:38:51.249Z,80.10
2019-03-13T02:41:17.329Z,80.20
2019-03-13T02:43:43.415Z,81.70
2019-03-13T02:46:09.607Z,80.30
2019-03-13T02:48:35.670Z,80.40
2019-03-13T02:51:01.759Z,80.90
2019-03-13T02:53:28.044Z,80.70
2019-03-13T02:55:54.099Z,80.80
2019-03-13T02:58:20.289Z,81.00
2019-03-13T03:01:05.137Z,81.10
2019-03-13T03:03:33.515Z,81.10
2019-03-13T03:06:00.484Z,80.90
2019-03-13T03:08:26.590Z,80.40
2019-03-13T03:10:52.758Z,80.60
2019-03-13T03:13:18.945Z,80.90
2019-03-13T03:15:45.048Z,81.20
2019-03-13T03:18:11.209Z,81.30
2019-03-13T03:20:37.292Z,81.30
2019-03-13T03:23:03.375Z,81.30
2019-03-13T03:25:29.454Z,81.30
2019-03-13T03:27:55.529Z,82.00
2019-03-13T03:30:23.032Z,81.50
2019-03-13T03:32:49.513Z,82.20
2019-03-13T03:35:15.855Z,82.10
2019-03-13T03:37:42.172Z,82.40
2019-03-13T03:40:11.557Z,82.30
2019-03-13T03:42:37.642Z,82.00
2019-03-13T03:45:06.535Z,81.80
2019-03-13T03:47:32.685Z,81.60
2019-03-13T03:49:58.754Z,81.50
2019-03-13T03:52:24.880Z,81.90
2019-03-13T03:54:51.056Z,81.90
2019-03-13T03:57:17.153Z,81.70
2019-03-13T03:59:43.228Z,81.60
2019-03-13T04:02:09.311Z,82.20
2019-03-13T04:04:35.398Z,82.00
2019-03-13T04:07:01.772Z,82.80
2019-03-13T04:09:27.979Z,82.60
2019-03-13T04:11:54.135Z,83.50
2019-03-13T04:14:20.242Z,83.00
2019-03-13T04:16:46.321Z,83.10
2019-03-13T04:19:12.642Z,84.00
2019-03-13T04:21:38.730Z,85.50
2019-03-13T04:24:05.104Z,87.70
2019-03-13T04:26:31.185Z,89.20
2019-03-13T04:28:57.282Z,90.10
2019-03-13T04:31:23.383Z,90.30
2019-03-13T04:33:49.470Z,90.10
2019-03-13T04:36:15.545Z,90.00
2019-03-13T04:38:41.666Z,89.90
2019-03-13T04:41:07.736Z,90.10
2019-03-13T04:43:33.832Z,90.20
2019-03-13T04:46:00.009Z,90.00
2019-03-13T04:48:26.080Z,90.30
2019-03-13T04:50:52.170Z,90.40
2019-03-13T04:53:18.251Z,90.10
2019-03-13T04:55:44.313Z,90.50
2019-03-13T04:58:10.403Z,90.30
2019-03-13T05:00:37.275Z,90.30
2019-03-13T05:03:03.471Z,90.00
2019-03-13T05:05:43.751Z,90.00
2019-03-13T05:08:13.059Z,90.40
2019-03-13T05:10:39.837Z,90.00
2019-03-13T05:13:05.980Z,90.10
2019-03-13T05:15:32.212Z,90.50
2019-03-13T05:17:58.294Z,90.90
2019-03-13T05:20:24.411Z,91.00
2019-03-13T05:22:50.489Z,91.50
2019-03-13T05:25:19.092Z,92.20
2019-03-13T05:27:44.586Z,92.40
2019-03-13T05:30:11.844Z,92.80
2019-03-13T05:32:37.924Z,93.10
2019-03-13T05:35:05.230Z,93.20
2019-03-13T05:37:31.301Z,93.40
2019-03-13T05:39:57.420Z,93.40
2019-03-13T05:42:23.497Z,93.20
2019-03-13T05:44:49.571Z,93.20
2019-03-13T05:47:15.673Z,93.10
2019-03-13T05:49:41.864Z,93.10
2019-03-13T05:52:08.057Z,93.10
2019-03-13T05:54:34.165Z,93.10
2019-03-13T05:57:00.229Z,93.10
2019-03-13T05:59:26.293Z,93.40
2019-03-13T06:01:52.381Z,93.30
2019-03-13T06:04:18.482Z,93.20
2019-03-13T06:06:44.565Z,91.70
2019-03-13T06:09:10.622Z,91.30
2019-03-13T06:11:36.700Z,91.20
2019-03-13T06:14:02.808Z,90.80
2019-03-13T06:16:28.998Z,90.70
2019-03-13T06:18:55.085Z,90.70
2019-03-13T06:21:21.193Z,91.10
2019-03-13T06:23:48.242Z,91.10
2019-03-13T06:26:14.529Z,90.70
2019-03-13T06:28:40.729Z,90.90
2019-03-13T06:31:06.829Z,91.40
2019-03-13T06:33:33.046Z,91.00
2019-03-13T06:35:59.219Z,91.10
2019-03-13T06:38:25.386Z,91.30
2019-03-13T06:40:51.587Z,91.20
2019-03-13T06:43:17.775Z,91.30
2019-03-13T06:45:44.011Z,91.10
2019-03-13T06:48:10.195Z,90.70
2019-03-13T06:50:36.389Z,90.20
2019-03-13T06:53:02.585Z,90.00
2019-03-13T06:55:28.704Z,90.00
2019-03-13T06:57:54.906Z,89.10
2019-03-13T07:00:37.301Z,89.50
2019-03-13T07:03:05.552Z,88.40
2019-03-13T07:05:42.839Z,88.40
2019-03-13T07:08:29.264Z,87.40
2019-03-13T07:10:57.369Z,85.80
2019-03-13T07:13:37.430Z,86.50
2019-03-13T07:16:11.301Z,85.80
2019-03-13T07:18:39.373Z,85.40
2019-03-13T07:21:07.485Z,86.50
2019-03-13T07:23:41.403Z,85.90
2019-03-13T07:26:15.449Z,85.60
2019-03-13T07:28:52.825Z,83.70
2019-03-13T07:31:20.798Z,84.30
2019-03-13T07:33:48.926Z,84.70
2019-03-13T07:36:23.175Z,82.20
2019-03-13T07:38:53.740Z,84.10
2019-03-13T07:41:24.806Z,83.20
2019-03-13T07:43:58.560Z,82.50
2019-03-13T07:46:42.020Z,81.80
2019-03-13T07:49:09.997Z,80.40
2019-03-13T07:51:47.240Z,81.00
2019-03-13T07:54:31.948Z,81.10
2019-03-13T07:57:08.771Z,81.80
2019-03-13T07:59:53.376Z,80.40
2019-03-13T08:02:21.472Z,81.00
2019-03-13T08:05:04.577Z,81.80
2019-03-13T08:07:32.684Z,80.70
2019-03-13T08:10:09.475Z,81.00
2019-03-13T08:12:40.246Z,81.60
2019-03-13T08:15:28.580Z,83.10
2019-03-13T08:18:02.558Z,83.20
2019-03-13T08:20:33.537Z,83.20
2019-03-13T08:23:07.581Z,83.30
2019-03-13T08:25:35.645Z,84.00
2019-03-13T08:28:06.441Z,82.00
2019-03-13T08:30:43.320Z,83.00
2019-03-13T08:33:17.067Z,83.20
2019-03-13T08:35:48.125Z,81.40
2019-03-13T08:38:19.236Z,83.10
2019-03-13T08:41:02.561Z,80.50
2019-03-13T08:43:49.006Z,83.30
2019-03-13T08:46:33.948Z,80.50
2019-03-13T08:49:04.764Z,82.00
2019-03-13T08:51:45.051Z,82.00
2019-03-13T08:54:13.128Z,80.20
2019-03-13T08:56:59.312Z,78.90
2019-03-13T08:59:35.958Z,80.20
2019-03-13T09:02:04.090Z,77.50
2019-03-13T09:04:38.105Z,77.30
2019-03-13T09:07:15.099Z,76.40
2019-03-13T09:09:48.961Z,76.60
2019-03-13T09:12:16.998Z,76.80
2019-03-13T09:15:01.889Z,74.10
2019-03-13T09:17:45.040Z,75.80
2019-03-13T09:20:25.164Z,73.40
2019-03-13T09:23:11.554Z,75.90
2019-03-13T09:25:42.106Z,75.80
2019-03-13T09:28:10.133Z,75.90
2019-03-13T09:30:44.468Z,73.60
2019-03-13T09:33:14.987Z,76.40
2019-03-13T09:35:45.981Z,74.10
2019-03-13T09:38:13.979Z,74.60
2019-03-13T09:40:58.655Z,73.20
2019-03-13T09:43:26.656Z,69.40
2019-03-13T09:45:54.613Z,70.00
2019-03-13T09:48:39.343Z,70.10
2019-03-13T09:51:16.355Z,66.10
2019-03-13T09:53:44.436Z,65.10
2019-03-13T09:56:12.470Z,65.80
2019-03-13T09:58:55.716Z,64.90
2019-03-13T10:01:23.715Z,67.00
2019-03-13T10:03:54.508Z,69.40
2019-03-13T10:06:34.416Z,69.30
2019-03-13T10:09:11.457Z,68.20
2019-03-13T10:11:45.546Z,65.60
2019-03-13T10:14:22.352Z,65.40
2019-03-13T10:16:50.534Z,64.80
2019-03-13T10:19:33.644Z,67.00
2019-03-13T10:22:16.820Z,66.60
2019-03-13T10:24:59.900Z,67.70
2019-03-13T10:27:44.581Z,61.10
2019-03-13T10:30:20.035Z,61.10
2019-03-13T10:32:50.563Z,59.90
2019-03-13T10:35:21.345Z,64.60
2019-03-13T10:37:58.272Z,61.80
2019-03-13T10:40:43.070Z,60.00
2019-03-13T10:43:27.819Z,61.10
2019-03-13T10:46:04.714Z,61.00
2019-03-13T10:48:35.879Z,62.60
2019-03-13T10:51:06.752Z,62.70
2019-03-13T10:53:40.564Z,62.00
2019-03-13T10:56:17.356Z,63.40
2019-03-13T10:58:45.400Z,62.70
2019-03-13T11:01:13.404Z,60.90
2019-03-13T11:03:43.925Z,62.80
2019-03-13T11:06:27.000Z,62.60
2019-03-13T11:09:11.992Z,61.60
2019-03-13T11:11:42.963Z,65.10
2019-03-13T11:14:29.142Z,66.70
2019-03-13T11:17:14.016Z,67.50
2019-03-13T11:19:42.010Z,67.40
2019-03-13T11:22:09.983Z,63.70
2019-03-13T11:24:38.071Z,63.40
2019-03-13T11:27:11.887Z,63.70
2019-03-13T11:29:42.802Z,61.70
2019-03-13T11:32:17.001Z,65.60
2019-03-13T11:34:45.055Z,60.00
2019-03-13T11:37:13.057Z,58.40
2019-03-13T11:39:46.893Z,57.80
2019-03-13T11:42:14.991Z,58.20
2019-03-13T11:44:58.069Z,55.20
2019-03-13T11:47:42.207Z,56.90
2019-03-13T11:50:25.687Z,58.10
2019-03-13T11:53:02.584Z,57.40
2019-03-13T11:55:30.719Z,58.30
2019-03-13T11:58:07.471Z,60.20
2019-03-13T12:00:52.695Z,59.00
2019-03-13T12:03:37.388Z,58.20
2019-03-13T12:06:08.312Z,59.90
2019-03-13T12:08:51.111Z,59.70
2019-03-13T12:11:31.164Z,59.60
2019-03-13T12:13:59.154Z,59.60
2019-03-13T12:16:29.890Z,58.70
2019-03-13T12:19:14.436Z,56.60
2019-03-13T12:21:42.553Z,55.80
2019-03-13T12:24:10.566Z,54.70
2019-03-13T12:26:38.653Z,55.10
2019-03-13T12:29:23.306Z,56.50
2019-03-13T12:31:57.252Z,56.50
2019-03-13T12:34:42.177Z,55.10
2019-03-13T12:37:16.040Z,55.80
2019-03-13T12:40:02.192Z,55.80
2019-03-13T12:42:48.337Z,55.90
2019-03-13T12:45:32.884Z,54.30
2019-03-13T12:48:00.901Z,55.80
2019-03-13T12:50:34.018Z,54.70
2019-03-13T12:53:04.079Z,55.20
2019-03-13T12:55:34.826Z,56.80
2019-03-13T12:58:19.201Z,55.90
2019-03-13T13:00:56.361Z,55.80
2019-03-13T13:03:39.442Z,57.00
2019-03-13T13:06:22.831Z,57.20
2019-03-13T13:09:00.056Z,55.90
2019-03-13T13:11:28.172Z,55.80
2019-03-13T13:13:58.025Z,55.90
2019-03-13T13:16:26.213Z,56.60
2019-03-13T13:18:52.620Z,55.40
2019-03-13T13:21:18.850Z,55.10
2019-03-13T13:23:45.038Z,55.60
2019-03-13T13:26:11.260Z,56.50
2019-03-13T13:28:37.368Z,56.00
2019-03-13T13:31:03.544Z,55.00
2019-03-13T13:33:29.649Z,55.00
2019-03-13T13:35:55.953Z,53.50
2019-03-13T13:38:22.156Z,54.20
2019-03-13T13:40:48.343Z,53.20
2019-03-13T13:43:14.492Z,51.80
2019-03-13T13:45:43.765Z,51.90
2019-03-13T13:48:09.942Z,53.80
2019-03-13T13:50:36.016Z,52.40
2019-03-13T13:53:02.118Z,52.90
2019-03-13T13:55:28.199Z,54.10
2019-03-13T13:57:54.295Z,55.00
2019-03-13T14:00:20.388Z,53.70
2019-03-13T14:02:46.481Z,55.90
2019-03-13T14:05:12.677Z,59.70
2019-03-13T14:07:39.009Z,65.40
2019-03-13T14:10:12.965Z,68.50
2019-03-13T14:12:39.039Z,73.50
2019-03-13T14:15:12.549Z,74.80
2019-03-13T14:17:38.656Z,82.40
2019-03-13T14:20:07.689Z,86.50
2019-03-13T14:22:33.750Z,92.10
2019-03-13T14:24:59.823Z,90.00
2019-03-13T14:27:25.908Z,90.40
2019-03-13T14:29:52.076Z,86.80
2019-03-13T14:32:18.229Z,86.00
2019-03-13T14:34:44.364Z,82.50
2019-03-13T14:37:10.524Z,82.40
2019-03-13T14:39:36.620Z,83.00
2019-03-13T14:42:02.905Z,80.10
2019-03-13T14:44:29.085Z,75.30
2019-03-13T14:46:55.175Z,71.70
2019-03-13T14:49:21.293Z,73.30
2019-03-13T14:51:47.384Z,62.60
2019-03-13T14:54:13.501Z,63.40
2019-03-13T14:56:39.653Z,58.70
2019-03-13T14:59:05.761Z,55.80
2019-03-13T15:01:31.839Z,57.10
2019-03-13T15:03:57.943Z,54.80
2019-03-13T15:06:24.085Z,52.90
2019-03-13T15:08:50.167Z,52.40
2019-03-13T15:11:16.293Z,51.20
2019-03-13T15:13:42.387Z,51.70
2019-03-13T15:16:08.487Z,54.40
2019-03-13T15:18:34.684Z,53.60
2019-03-13T15:21:00.885Z,57.40
2019-03-13T15:23:27.163Z,61.40
2019-03-13T15:25:53.253Z,69.00
2019-03-13T15:28:19.312Z,75.90
2019-03-13T15:30:45.410Z,78.90
2019-03-13T15:33:11.481Z,81.20
2019-03-13T15:35:37.736Z,83.90
2019-03-13T15:38:07.328Z,82.80
2019-03-13T15:40:33.472Z,82.60
2019-03-13T15:42:59.547Z,83.10
2019-03-13T15:45:30.461Z,82.40
2019-03-13T15:47:56.659Z,80.60
2019-03-13T15:50:22.924Z,80.60
2019-03-13T15:52:49.010Z,76.80
2019-03-13T15:55:17.502Z,76.50
2019-03-13T15:57:43.646Z,74.30
2019-03-13T16:00:26.504Z,72.30
2019-03-13T16:02:55.416Z,68.70
2019-03-13T16:05:20.690Z,65.10
2019-03-13T16:07:47.378Z,63.50
2019-03-13T16:10:17.880Z,62.80
2019-03-13T16:12:43.940Z,62.40
2019-03-13T16:15:16.056Z,63.20
2019-03-13T16:17:42.341Z,62.80
2019-03-13T16:20:11.933Z,63.00
2019-03-13T16:22:38.830Z,63.80
2019-03-13T16:25:07.965Z,64.40
2019-03-13T16:27:34.742Z,63.20
2019-03-13T16:30:00.934Z,64.90
2019-03-13T16:32:27.113Z,65.20
2019-03-13T16:34:53.229Z,64.60
2019-03-13T16:37:22.346Z,63.50
2019-03-13T16:39:48.528Z,64.00
2019-03-13T16:42:14.685Z,65.50
2019-03-13T16:44:40.783Z,64.70
2019-03-13T16:47:06.887Z,64.50
2019-03-13T16:49:33.012Z,62.30
2019-03-13T16:51:59.097Z,62.40
2019-03-13T16:54:25.171Z,63.00
2019-03-13T16:56:51.261Z,64.10
2019-03-13T16:59:17.364Z,64.90
2019-03-13T17:01:43.628Z,65.10
2019-03-13T17:04:09.732Z,66.00
2019-03-13T17:06:35.803Z,66.50
2019-03-13T17:09:04.020Z,66.40
2019-03-13T17:11:30.096Z,66.60
2019-03-13T17:13:56.399Z,66.20
2019-03-13T17:16:22.796Z,67.00
2019-03-13T17:18:48.877Z,67.10
2019-03-13T17:21:14.996Z,67.30
2019-03-13T17:23:41.293Z,67.50
2019-03-13T17:26:07.486Z,67.90
2019-03-13T17:28:33.568Z,68.40
2019-03-13T17:30:59.683Z,69.20
2019-03-13T17:33:25.841Z,69.70
2019-03-13T17:35:51.976Z,71.00
2019-03-13T17:38:18.153Z,70.70
2019-03-13T17:40:44.359Z,71.20
2019-03-13T17:43:10.529Z,72.30
2019-03-13T17:45:36.716Z,73.50
2019-03-13T17:48:04.628Z,73.10
2019-03-13T17:50:30.730Z,72.80
2019-03-13T17:52:56.797Z,70.90
2019-03-13T17:55:23.824Z,70.70
2019-03-13T17:57:49.911Z,72.00
2019-03-13T18:00:26.989Z,72.40
2019-03-13T18:02:53.068Z,72.00
2019-03-13T18:05:19.132Z,73.10
2019-03-13T18:07:45.320Z,74.10
2019-03-13T18:10:14.841Z,75.10
2019-03-13T18:12:41.050Z,76.20
2019-03-13T18:15:08.816Z,75.90
2019-03-13T18:17:35.088Z,76.20
2019-03-13T18:20:01.609Z,76.80
2019-03-13T18:22:27.717Z,76.70
2019-03-13T18:24:53.867Z,77.10
2019-03-13T18:27:20.113Z,77.90
2019-03-13T18:29:46.181Z,78.10
2019-03-13T18:32:12.261Z,77.80
2019-03-13T18:34:39.345Z,78.70
2019-03-13T18:37:05.668Z,78.80
2019-03-13T18:39:31.739Z,78.60
2019-03-13T18:41:57.812Z,79.00
2019-03-13T18:44:23.916Z,79.40
2019-03-13T18:46:50.236Z,79.60
2019-03-13T18:49:16.551Z,79.70
2019-03-13T18:51:42.762Z,79.70
2019-03-13T18:54:08.857Z,79.70
2019-03-13T18:56:34.935Z,80.00
2019-03-13T18:59:01.137Z,79.50
2019-03-13T19:01:27.421Z,79.30
2019-03-13T19:03:53.619Z,78.60
2019-03-13T19:06:19.722Z,79.30
2019-03-13T19:08:45.881Z,80.20
2019-03-13T19:11:12.084Z,81.10
2019-03-13T19:13:38.213Z,81.40
2019-03-13T19:16:04.593Z,81.60
2019-03-13T19:18:31.151Z,81.40
2019-03-13T19:20:58.699Z,80.10
2019-03-13T19:23:25.187Z,80.30
2019-03-13T19:25:51.476Z,78.90
2019-03-13T19:28:17.556Z,79.20
2019-03-13T19:30:43.850Z,79.40
2019-03-13T19:33:10.032Z,79.80
2019-03-13T19:35:37.016Z,79.80
2019-03-13T19:38:06.527Z,79.20
2019-03-13T19:40:32.724Z,79.10
2019-03-13T19:42:58.894Z,80.40
2019-03-13T19:45:28.281Z,80.50
2019-03-13T19:47:54.373Z,80.50
2019-03-13T19:50:20.634Z,80.40
2019-03-13T19:52:47.555Z,80.80
2019-03-13T19:55:14.477Z,80.80
2019-03-13T19:57:40.960Z,81.30
2019-03-13T20:00:12.227Z,81.20
2019-03-13T20:02:38.428Z,81.40
2019-03-13T20:05:07.425Z,81.10
2019-03-13T20:07:34.435Z,82.00
2019-03-13T20:10:00.653Z,81.80
2019-03-13T20:12:26.764Z,82.80
2019-03-13T20:14:52.853Z,82.60
2019-03-13T20:17:19.036Z,81.50
2019-03-13T20:19:45.230Z,82.10
2019-03-13T20:22:11.465Z,82.00
2019-03-13T20:24:38.765Z,82.20
2019-03-13T20:27:05.224Z,81.90
2019-03-13T20:29:31.451Z,82.00
2019-03-13T20:31:57.725Z,82.10
2019-03-13T20:34:24.033Z,82.20
2019-03-13T20:36:50.213Z,82.90
2019-03-13T20:39:16.385Z,84.10
2019-03-13T20:41:42.505Z,83.70
2019-03-13T20:44:08.605Z,83.10
2019-03-13T20:46:34.683Z,83.20
2019-03-13T20:49:00.830Z,82.90
2019-03-13T20:51:27.043Z,82.30
2019-03-13T20:53:53.237Z,83.50
2019-03-13T20:56:19.437Z,82.00
2019-03-13T20:58:45.513Z,81.70
2019-03-13T21:01:11.717Z,82.60
2019-03-13T21:03:37.809Z,82.60
2019-03-13T21:06:03.924Z,82.00
2019-03-13T21:08:30.092Z,81.80
2019-03-13T21:10:56.472Z,80.90
2019-03-13T21:13:22.629Z,80.90
2019-03-13T21:15:48.703Z,81.30
2019-03-13T21:18:14.851Z,81.70
2019-03-13T21:20:40.911Z,82.90
2019-03-13T21:23:07.080Z,82.00
2019-03-13T21:25:33.215Z,82.80
2019-03-13T21:27:59.433Z,82.50
2019-03-13T21:30:26.640Z,81.90
2019-03-13T21:32:52.768Z,82.30
2019-03-13T21:35:19.017Z,83.10
2019-03-13T21:37:45.165Z,83.00
2019-03-13T21:40:13.678Z,83.20
2019-03-13T21:42:39.963Z,83.70
2019-03-13T21:45:07.727Z,84.10
2019-03-13T21:47:33.972Z,84.20
2019-03-13T21:50:00.126Z,85.00
2019-03-13T21:52:26.200Z,84.50
2019-03-13T21:54:52.381Z,86.00
2019-03-13T21:57:18.579Z,87.10
2019-03-13T21:59:44.671Z,87.80
2019-03-13T22:02:10.771Z,88.70
2019-03-13T22:04:36.885Z,89.70
2019-03-13T22:07:02.977Z,90.20
2019-03-13T22:09:29.145Z,90.50
2019-03-13T22:11:55.236Z,90.50
2019-03-13T22:14:21.341Z,90.60
2019-03-13T22:16:47.451Z,90.70
2019-03-13T22:19:13.606Z,91.10
2019-03-13T22:21:39.893Z,91.10
2019-03-13T22:24:06.076Z,91.30
2019-03-13T22:26:32.189Z,91.40
2019-03-13T22:28:58.396Z,91.40
2019-03-13T22:31:24.474Z,91.50
2019-03-13T22:33:50.707Z,91.10
2019-03-13T22:36:16.849Z,91.20
2019-03-13T22:38:42.903Z,91.40
2019-03-13T22:41:09.114Z,91.70
2019-03-13T22:43:35.271Z,91.90
2019-03-13T22:46:01.387Z,91.90
2019-03-13T22:48:27.578Z,92.20
2019-03-13T22:50:53.675Z,92.50
2019-03-13T22:53:19.772Z,92.30
2019-03-13T22:55:45.977Z,92.40
2019-03-13T22:58:12.136Z,92.50
2019-03-13T23:00:46.816Z,92.70
2019-03-13T23:03:14.476Z,92.70
2019-03-13T23:05:40.595Z,92.90
2019-03-13T23:08:06.792Z,93.00
2019-03-13T23:10:33.887Z,93.00
2019-03-13T23:13:00.076Z,93.10
2019-03-13T23:15:26.255Z,93.10
2019-03-13T23:17:52.347Z,93.10
2019-03-13T23:20:18.417Z,93.30
2019-03-13T23:22:44.536Z,93.60
2019-03-13T23:25:10.668Z,93.60
2019-03-13T23:27:36.850Z,93.80
2019-03-13T23:30:05.180Z,93.80
2019-03-13T23:32:31.250Z,94.00
2019-03-13T23:34:57.320Z,94.10
2019-03-13T23:37:23.427Z,93.90
2019-03-13T23:39:49.530Z,93.80
2019-03-13T23:42:15.734Z,93.90
2019-03-13T23:44:41.844Z,93.70
2019-03-13T23:47:07.935Z,93.70
2019-03-13T23:49:34.011Z,93.80
2019-03-13T23:52:02.780Z,94.00
2019-03-13T23:54:28.228Z,93.80
2019-03-13T23:56:54.296Z,93.80
2019-03-13T23:59:20.421Z,93.90
